sensor_id;sensor_type;location;lat;lon;timestamp;pressure;altitude;pressure_sealevel;temperature;humidity
79612;BME280;69094;48.154;11.536;2024-03-02T00:00:49;94483.16;;;5.21;93.71
79612;BME280;69094;48.154;11.536;2024-03-02T00:03:15;94486.63;;;5.21;94.49
79612;BME280;69094;48.154;11.536;2024-03-02T00:05:40;94477.59;;;5.26;93.10
79612;BME280;69094;48.154;11.536;2024-03-02T00:08:06;94479.34;;;5.22;93.51
79612;BME280;69094;48.154;11.536;2024-03-02T00:10:40;94473.00;;;5.17;93.32
79612;BME280;69094;48.154;11.536;2024-03-02T00:13:06;94475.22;;;5.15;93.54
79612;BME280;69094;48.154;11.536;2024-03-02T00:18:10;94470.47;;;5.12;92.23
79612;BME280;69094;48.154;11.536;2024-03-02T00:20:37;94472.19;;;5.08;93.45
79612;BME280;69094;48.154;11.536;2024-03-02T00:23:06;94470.44;;;5.04;93.27
79612;BME280;69094;48.154;11.536;2024-03-02T00:28:05;94452.84;;;4.97;94.01
79612;BME280;69094;48.154;11.536;2024-03-02T00:30:54;94465.22;;;5.16;93.77
79612;BME280;69094;48.154;11.536;2024-03-02T00:33:21;94461.59;;;5.12;93.56
79612;BME280;69094;48.154;11.536;2024-03-02T00:35:47;94454.59;;;5.11;93.87
79612;BME280;69094;48.154;11.536;2024-03-02T00:38:12;94458.06;;;5.11;94.01
79612;BME280;69094;48.154;11.536;2024-03-02T00:40:39;94452.22;;;5.09;93.53
79612;BME280;69094;48.154;11.536;2024-03-02T00:43:05;94455.72;;;5.10;93.01
79612;BME280;69094;48.154;11.536;2024-03-02T00:45:30;94453.03;;;5.10;92.98
79612;BME280;69094;48.154;11.536;2024-03-02T00:47:55;94440.97;;;5.07;92.60
79612;BME280;69094;48.154;11.536;2024-03-02T00:50:21;94445.88;;;5.05;92.84
79612;BME280;69094;48.154;11.536;2024-03-02T00:52:46;94442.41;;;5.05;92.55
79612;BME280;69094;48.154;11.536;2024-03-02T00:55:13;94444.75;;;5.06;92.18
79612;BME280;69094;48.154;11.536;2024-03-02T00:57:39;94438.88;;;5.04;92.60
79612;BME280;69094;48.154;11.536;2024-03-02T01:00:05;94442.53;;;5.08;91.84
79612;BME280;69094;48.154;11.536;2024-03-02T01:02:35;94452.34;;;5.04;91.91
79612;BME280;69094;48.154;11.536;2024-03-02T01:05:00;94454.28;;;5.04;92.45
79612;BME280;69094;48.154;11.536;2024-03-02T01:07:25;94452.84;;;5.06;91.95
79612;BME280;69094;48.154;11.536;2024-03-02T01:09:51;94462.34;;;5.04;92.17
79612;BME280;69094;48.154;11.536;2024-03-02T01:12:16;94455.22;;;4.99;92.97
79612;BME280;69094;48.154;11.536;2024-03-02T01:14:41;94447.91;;;4.91;92.74
79612;BME280;69094;48.154;11.536;2024-03-02T01:17:06;94460.31;;;4.92;92.96
79612;BME280;69094;48.154;11.536;2024-03-02T01:19:32;94459.19;;;4.93;92.85
79612;BME280;69094;48.154;11.536;2024-03-02T01:21:57;94460.16;;;4.97;92.50
79612;BME280;69094;48.154;11.536;2024-03-02T01:24:22;94460.31;;;4.92;92.13
79612;BME280;69094;48.154;11.536;2024-03-02T01:26:48;94452.84;;;4.89;92.71
79612;BME280;69094;48.154;11.536;2024-03-02T01:29:13;94453.00;;;4.92;92.47
79612;BME280;69094;48.154;11.536;2024-03-02T01:31:39;94451.75;;;4.90;92.76
79612;BME280;69094;48.154;11.536;2024-03-02T01:34:07;94446.34;;;4.90;92.75
79612;BME280;69094;48.154;11.536;2024-03-02T01:36:32;94456.50;;;4.93;92.18
79612;BME280;69094;48.154;11.536;2024-03-02T01:38:58;94457.59;;;4.83;92.66
79612;BME280;69094;48.154;11.536;2024-03-02T01:41:23;94447.28;;;4.85;92.33
79612;BME280;69094;48.154;11.536;2024-03-02T01:43:48;94449.50;;;4.83;93.08
79612;BME280;69094;48.154;11.536;2024-03-02T01:46:14;94455.03;;;4.87;92.69
79612;BME280;69094;48.154;11.536;2024-03-02T01:48:39;94454.41;;;4.81;93.37
79612;BME280;69094;48.154;11.536;2024-03-02T01:51:05;94448.72;;;4.83;93.33
79612;BME280;69094;48.154;11.536;2024-03-02T01:53:31;94445.38;;;4.86;93.32
79612;BME280;69094;48.154;11.536;2024-03-02T01:55:57;94444.59;;;4.94;92.98
79612;BME280;69094;48.154;11.536;2024-03-02T01:58:22;94440.94;;;4.99;92.13
79612;BME280;69094;48.154;11.536;2024-03-02T02:00:47;94442.19;;;4.84;92.06
79612;BME280;69094;48.154;11.536;2024-03-02T02:03:13;94431.41;;;4.84;92.07
79612;BME280;69094;48.154;11.536;2024-03-02T02:05:38;94434.59;;;4.86;92.86
79612;BME280;69094;48.154;11.536;2024-03-02T02:08:04;94432.06;;;4.98;92.40
79612;BME280;69094;48.154;11.536;2024-03-02T02:10:29;94420.66;;;5.01;91.93
79612;BME280;69094;48.154;11.536;2024-03-02T02:12:55;94415.56;;;5.08;91.60
79612;BME280;69094;48.154;11.536;2024-03-02T02:17:52;94417.47;;;5.16;90.44
79612;BME280;69094;48.154;11.536;2024-03-02T02:20:17;94410.66;;;5.10;89.57
79612;BME280;69094;48.154;11.536;2024-03-02T02:23:03;94422.09;;;5.07;89.71
79612;BME280;69094;48.154;11.536;2024-03-02T02:25:29;94413.66;;;5.17;88.83
79612;BME280;69094;48.154;11.536;2024-03-02T02:27:55;94412.56;;;5.10;89.66
79612;BME280;69094;48.154;11.536;2024-03-02T02:30:22;94410.66;;;5.10;90.32
79612;BME280;69094;48.154;11.536;2024-03-02T02:32:48;94414.94;;;5.11;89.51
79612;BME280;69094;48.154;11.536;2024-03-02T02:35:13;94414.94;;;5.11;90.12
79612;BME280;69094;48.154;11.536;2024-03-02T02:37:39;94406.53;;;5.13;90.02
79612;BME280;69094;48.154;11.536;2024-03-02T02:40:04;94420.47;;;5.24;89.80
79612;BME280;69094;48.154;11.536;2024-03-02T02:42:30;94419.84;;;5.18;90.15
79612;BME280;69094;48.154;11.536;2024-03-02T02:44:55;94412.56;;;5.27;89.29
79612;BME280;69094;48.154;11.536;2024-03-02T02:47:21;94420.16;;;5.25;89.63
79612;BME280;69094;48.154;11.536;2024-03-02T02:49:46;94425.22;;;5.35;89.39
79612;BME280;69094;48.154;11.536;2024-03-02T02:52:12;94420.47;;;5.41;89.52
79612;BME280;69094;48.154;11.536;2024-03-02T02:54:37;94417.28;;;5.48;88.60
79612;BME280;69094;48.154;11.536;2024-03-02T02:57:03;94417.28;;;5.48;88.94
79612;BME280;69094;48.154;11.536;2024-03-02T02:59:28;94416.50;;;5.47;89.53
79612;BME280;69094;48.154;11.536;2024-03-02T03:01:53;94418.53;;;5.50;89.30
79612;BME280;69094;48.154;11.536;2024-03-02T03:04:19;94428.38;;;5.55;89.58
79612;BME280;69094;48.154;11.536;2024-03-02T03:06:44;94430.13;;;5.59;89.42
79612;BME280;69094;48.154;11.536;2024-03-02T03:09:09;94433.91;;;5.58;89.66
79612;BME280;69094;48.154;11.536;2024-03-02T03:11:36;94437.75;;;5.57;89.31
79612;BME280;69094;48.154;11.536;2024-03-02T03:14:01;94429.00;;;5.60;89.75
79612;BME280;69094;48.154;11.536;2024-03-02T03:16:27;94421.09;;;5.47;90.18
79612;BME280;69094;48.154;11.536;2024-03-02T03:18:52;94430.59;;;5.61;89.62
79612;BME280;69094;48.154;11.536;2024-03-02T03:21:18;94428.69;;;5.53;90.34
79612;BME280;69094;48.154;11.536;2024-03-02T03:23:44;94431.09;;;5.55;90.46
79612;BME280;69094;48.154;11.536;2024-03-02T03:26:09;94421.72;;;5.52;90.73
79612;BME280;69094;48.154;11.536;2024-03-02T03:28:34;94434.88;;;5.63;90.87
79612;BME280;69094;48.154;11.536;2024-03-02T03:30:59;94424.25;;;5.57;90.19
79612;BME280;69094;48.154;11.536;2024-03-02T03:33:25;94433.75;;;5.72;89.69
79612;BME280;69094;48.154;11.536;2024-03-02T03:35:50;94431.03;;;5.72;87.91
79612;BME280;69094;48.154;11.536;2024-03-02T03:38:15;94420.75;;;5.57;88.82
79612;BME280;69094;48.154;11.536;2024-03-02T03:40:40;94423.31;;;5.45;88.94
79612;BME280;69094;48.154;11.536;2024-03-02T03:43:06;94425.84;;;5.41;89.92
79612;BME280;69094;48.154;11.536;2024-03-02T03:45:32;94425.06;;;5.40;90.17
79612;BME280;69094;48.154;11.536;2024-03-02T03:47:57;94426.66;;;5.42;89.80
79612;BME280;69094;48.154;11.536;2024-03-02T03:50:22;94422.06;;;5.33;90.38
79612;BME280;69094;48.154;11.536;2024-03-02T03:52:48;94424.91;;;5.28;90.68
79612;BME280;69094;48.154;11.536;2024-03-02T03:55:13;94421.41;;;5.36;90.74
79612;BME280;69094;48.154;11.536;2024-03-02T03:57:38;94422.38;;;5.40;89.89
79612;BME280;69094;48.154;11.536;2024-03-02T04:00:04;94416.34;;;5.26;89.87
79612;BME280;69094;48.154;11.536;2024-03-02T04:02:30;94417.31;;;5.30;90.57
79612;BME280;69094;48.154;11.536;2024-03-02T04:04:55;94427.47;;;5.25;90.96
79612;BME280;69094;48.154;11.536;2024-03-02T04:07:20;94421.28;;;5.24;90.69
79612;BME280;69094;48.154;11.536;2024-03-02T04:09:45;94433.81;;;5.20;90.72
79612;BME280;69094;48.154;11.536;2024-03-02T04:12:11;94435.72;;;5.20;89.98
79612;BME280;69094;48.154;11.536;2024-03-02T04:14:38;94429.38;;;5.15;90.38
79612;BME280;69094;48.154;11.536;2024-03-02T04:17:03;94437.00;;;5.22;90.31
79612;BME280;69094;48.154;11.536;2024-03-02T04:19:28;94437.47;;;5.15;90.40
79612;BME280;69094;48.154;11.536;2024-03-02T04:21:54;94443.16;;;5.14;90.54
79612;BME280;69094;48.154;11.536;2024-03-02T04:24:19;94439.38;;;5.15;90.80
79612;BME280;69094;48.154;11.536;2024-03-02T04:26:44;94440.94;;;5.16;90.21
79612;BME280;69094;48.154;11.536;2024-03-02T04:29:10;94444.59;;;5.20;90.04
79612;BME280;69094;48.154;11.536;2024-03-02T04:31:35;94447.94;;;5.17;90.57
79612;BME280;69094;48.154;11.536;2024-03-02T04:34:00;94449.66;;;5.22;90.70
79612;BME280;69094;48.154;11.536;2024-03-02T04:36:26;94454.94;;;5.27;90.18
79612;BME280;69094;48.154;11.536;2024-03-02T04:38:51;94453.00;;;5.27;89.71
79612;BME280;69094;48.154;11.536;2024-03-02T04:41:16;94463.47;;;5.46;89.23
79612;BME280;69094;48.154;11.536;2024-03-02T04:43:42;94463.94;;;5.48;88.82
79612;BME280;69094;48.154;11.536;2024-03-02T04:46:07;94463.13;;;5.56;89.17
79612;BME280;69094;48.154;11.536;2024-03-02T04:48:33;94471.53;;;5.64;89.66
79612;BME280;69094;48.154;11.536;2024-03-02T04:50:59;94469.78;;;5.68;90.04
79612;BME280;69094;48.154;11.536;2024-03-02T04:53:24;94477.28;;;5.62;90.88
79612;BME280;69094;48.154;11.536;2024-03-02T04:55:50;94464.72;;;5.57;91.25
79612;BME280;69094;48.154;11.536;2024-03-02T04:58:34;94470.91;;;5.58;91.00
79612;BME280;69094;48.154;11.536;2024-03-02T05:00:59;94481.22;;;5.56;91.80
79612;BME280;69094;48.154;11.536;2024-03-02T05:03:24;94482.31;;;5.64;91.21
79612;BME280;69094;48.154;11.536;2024-03-02T05:05:50;94482.16;;;5.69;91.10
79612;BME280;69094;48.154;11.536;2024-03-02T05:08:15;94478.69;;;5.59;91.35
79612;BME280;69094;48.154;11.536;2024-03-02T05:10:42;94481.41;;;5.59;89.73
79612;BME280;69094;48.154;11.536;2024-03-02T05:13:07;94483.94;;;5.47;89.44
79612;BME280;69094;48.154;11.536;2024-03-02T05:15:32;94483.47;;;5.36;90.46
79612;BME280;69094;48.154;11.536;2024-03-02T05:17:58;94480.28;;;5.26;90.50
79612;BME280;69094;48.154;11.536;2024-03-02T05:20:24;94479.03;;;5.32;90.55
79612;BME280;69094;48.154;11.536;2024-03-02T05:22:49;94484.59;;;5.35;90.80
79612;BME280;69094;48.154;11.536;2024-03-02T05:25:15;94483.00;;;5.34;90.67
79612;BME280;69094;48.154;11.536;2024-03-02T05:27:40;94486.66;;;5.47;90.10
79612;BME280;69094;48.154;11.536;2024-03-02T05:30:06;94483.16;;;5.47;89.74
79612;BME280;69094;48.154;11.536;2024-03-02T05:32:33;94482.53;;;5.50;89.90
79612;BME280;69094;48.154;11.536;2024-03-02T05:34:58;94484.88;;;5.51;90.51
79612;BME280;69094;48.154;11.536;2024-03-02T05:37:24;94486.16;;;5.54;91.13
79612;BME280;69094;48.154;11.536;2024-03-02T05:39:49;94485.38;;;5.62;91.05
79612;BME280;69094;48.154;11.536;2024-03-02T05:42:14;94484.09;;;5.59;91.59
79612;BME280;69094;48.154;11.536;2024-03-02T05:44:41;94491.41;;;5.50;91.68
79612;BME280;69094;48.154;11.536;2024-03-02T05:47:07;94489.34;;;5.47;91.86
79612;BME280;69094;48.154;11.536;2024-03-02T05:49:34;94492.66;;;5.53;91.81
79612;BME280;69094;48.154;11.536;2024-03-02T05:51:59;94492.97;;;5.51;92.45
79612;BME280;69094;48.154;11.536;2024-03-02T05:54:24;94488.22;;;5.57;92.38
79612;BME280;69094;48.154;11.536;2024-03-02T05:56:50;94490.28;;;5.51;92.64
79612;BME280;69094;48.154;11.536;2024-03-02T05:59:15;94486.78;;;5.51;92.25
79612;BME280;69094;48.154;11.536;2024-03-02T06:01:43;94497.28;;;5.52;92.15
79612;BME280;69094;48.154;11.536;2024-03-02T06:04:10;94489.00;;;5.57;91.89
79612;BME280;69094;48.154;11.536;2024-03-02T06:06:38;94490.75;;;5.53;91.33
79612;BME280;69094;48.154;11.536;2024-03-02T06:09:04;94494.88;;;5.51;91.48
79612;BME280;69094;48.154;11.536;2024-03-02T06:11:49;94494.09;;;5.50;92.67
79612;BME280;69094;48.154;11.536;2024-03-02T06:14:15;94503.31;;;5.49;91.79
79612;BME280;69094;48.154;11.536;2024-03-02T06:16:40;94497.75;;;5.46;91.81
79612;BME280;69094;48.154;11.536;2024-03-02T06:19:05;94495.38;;;5.44;91.34
79612;BME280;69094;48.154;11.536;2024-03-02T06:21:32;94497.59;;;5.42;92.01
79612;BME280;69094;48.154;11.536;2024-03-02T06:23:57;94500.44;;;5.46;91.56
79612;BME280;69094;48.154;11.536;2024-03-02T06:26:22;94499.19;;;5.52;91.25
79612;BME280;69094;48.154;11.536;2024-03-02T06:28:48;94496.34;;;5.39;91.63
79612;BME280;69094;48.154;11.536;2024-03-02T06:31:13;94491.25;;;5.38;91.60
79612;BME280;69094;48.154;11.536;2024-03-02T06:33:38;94486.97;;;5.37;91.90
79612;BME280;69094;48.154;11.536;2024-03-02T06:36:05;94489.19;;;5.35;91.52
79612;BME280;69094;48.154;11.536;2024-03-02T06:38:33;94487.91;;;5.41;90.85
79612;BME280;69094;48.154;11.536;2024-03-02T06:40:59;94493.31;;;5.41;90.82
79612;BME280;69094;48.154;11.536;2024-03-02T06:43:24;94497.75;;;5.46;90.96
79612;BME280;69094;48.154;11.536;2024-03-02T06:45:50;94491.56;;;5.45;91.03
79612;BME280;69094;48.154;11.536;2024-03-02T06:48:16;94497.28;;;5.52;90.91
79612;BME280;69094;48.154;11.536;2024-03-02T06:50:46;94496.47;;;5.60;90.90
79612;BME280;69094;48.154;11.536;2024-03-02T06:53:11;94495.84;;;5.46;89.92
79612;BME280;69094;48.154;11.536;2024-03-02T06:55:37;94499.50;;;5.42;90.25
79612;BME280;69094;48.154;11.536;2024-03-02T06:58:02;94495.53;;;5.30;89.97
79612;BME280;69094;48.154;11.536;2024-03-02T07:00:27;94491.72;;;5.31;89.99
79612;BME280;69094;48.154;11.536;2024-03-02T07:02:53;94500.16;;;5.30;90.59
79612;BME280;69094;48.154;11.536;2024-03-02T07:05:18;94493.63;;;5.31;89.95
79612;BME280;69094;48.154;11.536;2024-03-02T07:07:43;94487.28;;;5.44;90.39
79612;BME280;69094;48.154;11.536;2024-03-02T07:10:09;94477.59;;;5.52;90.96
79612;BME280;69094;48.154;11.536;2024-03-02T07:12:34;94487.56;;;5.69;91.48
79612;BME280;69094;48.154;11.536;2024-03-02T07:14:59;94486.09;;;5.89;90.75
79612;BME280;69094;48.154;11.536;2024-03-02T07:17:28;94490.25;;;5.95;89.62
79612;BME280;69094;48.154;11.536;2024-03-02T07:19:53;94501.78;;;6.13;88.85
79612;BME280;69094;48.154;11.536;2024-03-02T07:22:19;94502.44;;;6.10;89.22
79612;BME280;69094;48.154;11.536;2024-03-02T07:24:44;94500.22;;;6.12;88.65
79612;BME280;69094;48.154;11.536;2024-03-02T07:27:11;94502.13;;;6.11;88.43
79612;BME280;69094;48.154;11.536;2024-03-02T07:29:37;94497.16;;;6.22;88.43
79612;BME280;69094;48.154;11.536;2024-03-02T07:32:03;94500.84;;;6.56;86.82
79612;BME280;69094;48.154;11.536;2024-03-02T07:34:29;94504.81;;;6.88;85.28
79612;BME280;69094;48.154;11.536;2024-03-02T07:36:55;94510.69;;;7.41;83.17
79612;BME280;69094;48.154;11.536;2024-03-02T07:39:20;94509.91;;;8.07;79.99
79612;BME280;69094;48.154;11.536;2024-03-02T07:41:46;94504.31;;;8.70;75.83
79612;BME280;69094;48.154;11.536;2024-03-02T07:44:11;94511.38;;;9.23;73.75
79612;BME280;69094;48.154;11.536;2024-03-02T07:46:41;94508.28;;;9.49;71.35
79612;BME280;69094;48.154;11.536;2024-03-02T07:49:06;94510.13;;;9.33;69.29
79612;BME280;69094;48.154;11.536;2024-03-02T07:51:31;94511.03;;;9.37;68.40
79612;BME280;69094;48.154;11.536;2024-03-02T07:53:57;94520.50;;;9.43;68.62
79612;BME280;69094;48.154;11.536;2024-03-02T07:56:22;94518.31;;;9.61;67.64
79612;BME280;69094;48.154;11.536;2024-03-02T07:58:50;94508.50;;;9.85;66.94
79612;BME280;69094;48.154;11.536;2024-03-02T08:01:16;94518.59;;;10.12;66.53
79612;BME280;69094;48.154;11.536;2024-03-02T08:03:42;94514.19;;;10.36;66.03
79612;BME280;69094;48.154;11.536;2024-03-02T08:06:08;94513.63;;;10.30;64.75
79612;BME280;69094;48.154;11.536;2024-03-02T08:08:33;94517.88;;;10.60;64.09
79612;BME280;69094;48.154;11.536;2024-03-02T08:10:59;94517.06;;;11.23;62.20
79612;BME280;69094;48.154;11.536;2024-03-02T08:13:24;94515.34;;;11.69;60.36
79612;BME280;69094;48.154;11.536;2024-03-02T08:15:49;94515.31;;;11.85;59.33
79612;BME280;69094;48.154;11.536;2024-03-02T08:18:15;94518.56;;;12.10;60.03
79612;BME280;69094;48.154;11.536;2024-03-02T08:20:40;94519.97;;;12.23;59.49
79612;BME280;69094;48.154;11.536;2024-03-02T08:23:06;94520.06;;;13.46;55.16
79612;BME280;69094;48.154;11.536;2024-03-02T08:25:33;94519.53;;;13.93;52.71
79612;BME280;69094;48.154;11.536;2024-03-02T08:27:59;94518.81;;;13.96;52.23
79612;BME280;69094;48.154;11.536;2024-03-02T08:30:24;94523.63;;;14.07;52.87
79612;BME280;69094;48.154;11.536;2024-03-02T08:32:50;94521.94;;;13.98;54.04
79612;BME280;69094;48.154;11.536;2024-03-02T08:35:15;94525.13;;;14.72;51.86
79612;BME280;69094;48.154;11.536;2024-03-02T08:37:41;94518.56;;;14.09;53.41
79612;BME280;69094;48.154;11.536;2024-03-02T08:40:08;94518.06;;;14.71;52.35
79612;BME280;69094;48.154;11.536;2024-03-02T08:42:33;94524.72;;;14.70;50.97
79612;BME280;69094;48.154;11.536;2024-03-02T08:44:59;94520.66;;;15.49;49.27
79612;BME280;69094;48.154;11.536;2024-03-02T08:47:26;94522.44;;;15.82;47.15
79612;BME280;69094;48.154;11.536;2024-03-02T08:49:52;94526.31;;;15.19;49.02
79612;BME280;69094;48.154;11.536;2024-03-02T08:52:17;94522.47;;;15.27;48.49
79612;BME280;69094;48.154;11.536;2024-03-02T08:54:43;94521.13;;;15.58;46.41
79612;BME280;69094;48.154;11.536;2024-03-02T08:57:08;94517.88;;;16.11;45.78
79612;BME280;69094;48.154;11.536;2024-03-02T08:59:33;94523.19;;;16.77;44.57
79612;BME280;69094;48.154;11.536;2024-03-02T09:01:59;94529.03;;;16.58;45.24
79612;BME280;69094;48.154;11.536;2024-03-02T09:04:24;94523.41;;;16.15;46.42
79612;BME280;69094;48.154;11.536;2024-03-02T09:06:50;94525.25;;;15.93;46.63
79612;BME280;69094;48.154;11.536;2024-03-02T09:09:15;94526.28;;;16.58;45.16
79612;BME280;69094;48.154;11.536;2024-03-02T09:11:41;94521.69;;;15.89;46.29
79612;BME280;69094;48.154;11.536;2024-03-02T09:14:06;94526.03;;;15.31;48.28
79612;BME280;69094;48.154;11.536;2024-03-02T09:16:31;94525.13;;;14.72;50.62
79612;BME280;69094;48.154;11.536;2024-03-02T09:18:57;94522.09;;;15.32;49.69
79612;BME280;69094;48.154;11.536;2024-03-02T09:21:23;94528.22;;;16.50;46.38
79612;BME280;69094;48.154;11.536;2024-03-02T09:23:48;94532.91;;;15.66;47.72
79612;BME280;69094;48.154;11.536;2024-03-02T09:26:14;94533.28;;;15.61;48.65
79612;BME280;69094;48.154;11.536;2024-03-02T09:28:43;94531.63;;;15.52;50.02
79612;BME280;69094;48.154;11.536;2024-03-02T09:31:08;94533.84;;;15.33;50.34
79612;BME280;69094;48.154;11.536;2024-03-02T09:33:34;94528.63;;;15.13;50.07
79612;BME280;69094;48.154;11.536;2024-03-02T09:35:59;94527.81;;;16.52;47.69
79612;BME280;69094;48.154;11.536;2024-03-02T09:38:25;94524.69;;;16.50;46.11
79612;BME280;69094;48.154;11.536;2024-03-02T09:40:50;94524.41;;;17.23;44.39
79612;BME280;69094;48.154;11.536;2024-03-02T09:43:16;94525.50;;;16.61;45.06
79612;BME280;69094;48.154;11.536;2024-03-02T09:45:41;94521.53;;;15.60;46.74
79612;BME280;69094;48.154;11.536;2024-03-02T09:48:07;94516.38;;;15.51;46.79
79612;BME280;69094;48.154;11.536;2024-03-02T09:50:33;94516.31;;;16.10;45.78
79612;BME280;69094;48.154;11.536;2024-03-02T09:52:58;94512.63;;;15.22;47.73
79612;BME280;69094;48.154;11.536;2024-03-02T09:55:24;94522.09;;;15.32;48.42
79612;BME280;69094;48.154;11.536;2024-03-02T09:57:50;94515.63;;;15.62;48.06
79612;BME280;69094;48.154;11.536;2024-03-02T10:00:16;94515.53;;;15.47;47.08
79612;BME280;69094;48.154;11.536;2024-03-02T10:02:42;94516.38;;;15.55;46.46
79612;BME280;69094;48.154;11.536;2024-03-02T10:05:11;94514.00;;;16.27;44.97
79612;BME280;69094;48.154;11.536;2024-03-02T10:07:39;94512.63;;;17.40;42.72
79612;BME280;69094;48.154;11.536;2024-03-02T10:10:14;94513.75;;;16.68;43.55
79612;BME280;69094;48.154;11.536;2024-03-02T10:12:40;94502.09;;;15.87;44.87
79612;BME280;69094;48.154;11.536;2024-03-02T10:15:06;94506.72;;;14.69;48.34
79612;BME280;69094;48.154;11.536;2024-03-02T10:17:32;94507.84;;;15.12;48.65
79612;BME280;69094;48.154;11.536;2024-03-02T10:19:58;94502.56;;;14.48;48.48
79612;BME280;69094;48.154;11.536;2024-03-02T10:22:23;94511.84;;;14.74;48.72
79612;BME280;69094;48.154;11.536;2024-03-02T10:24:49;94500.81;;;14.67;48.74
79612;BME280;69094;48.154;11.536;2024-03-02T10:27:22;94502.38;;;14.68;49.51
79612;BME280;69094;48.154;11.536;2024-03-02T10:29:49;94504.31;;;15.67;46.37
79612;BME280;69094;48.154;11.536;2024-03-02T10:32:15;94506.84;;;15.90;45.18
79612;BME280;69094;48.154;11.536;2024-03-02T10:34:45;94502.66;;;15.51;45.35
79612;BME280;69094;48.154;11.536;2024-03-02T10:37:11;94492.56;;;15.63;45.73
79612;BME280;69094;48.154;11.536;2024-03-02T10:39:37;94496.00;;;16.36;44.18
79612;BME280;69094;48.154;11.536;2024-03-02T10:42:05;94490.47;;;16.22;43.82
79612;BME280;69094;48.154;11.536;2024-03-02T10:44:31;94483.78;;;16.16;44.99
79612;BME280;69094;48.154;11.536;2024-03-02T10:47:00;94478.63;;;15.97;44.72
79612;BME280;69094;48.154;11.536;2024-03-02T10:49:26;94474.72;;;15.98;44.98
79612;BME280;69094;48.154;11.536;2024-03-02T10:51:53;94477.25;;;16.60;43.51
79612;BME280;69094;48.154;11.536;2024-03-02T10:54:18;94465.41;;;16.31;43.16
79612;BME280;69094;48.154;11.536;2024-03-02T10:56:44;94464.19;;;15.37;45.96
79612;BME280;69094;48.154;11.536;2024-03-02T11:01:48;94459.13;;;16.23;43.08
79612;BME280;69094;48.154;11.536;2024-03-02T11:04:16;94459.44;;;16.04;43.74
79612;BME280;69094;48.154;11.536;2024-03-02T11:06:49;94451.25;;;16.22;44.12
79612;BME280;69094;48.154;11.536;2024-03-02T11:09:18;94445.72;;;16.00;43.77
79612;BME280;69094;48.154;11.536;2024-03-02T11:11:49;94444.28;;;17.28;42.40
79612;BME280;69094;48.154;11.536;2024-03-02T11:14:21;94439.06;;;17.88;41.43
79612;BME280;69094;48.154;11.536;2024-03-02T11:16:49;94434.88;;;18.39;39.77
79612;BME280;69094;48.154;11.536;2024-03-02T11:19:15;94436.00;;;18.48;39.41
79612;BME280;69094;48.154;11.536;2024-03-02T11:21:42;94422.53;;;17.88;40.57
79612;BME280;69094;48.154;11.536;2024-03-02T11:27:05;94422.19;;;18.52;39.41
79612;BME280;69094;48.154;11.536;2024-03-02T11:32:15;94408.81;;;17.80;41.41
79612;BME280;69094;48.154;11.536;2024-03-02T11:34:43;94416.25;;;18.61;40.93
79612;BME280;69094;48.154;11.536;2024-03-02T11:37:10;94407.28;;;19.02;39.27
79612;BME280;69094;48.154;11.536;2024-03-02T11:39:37;94407.19;;;19.12;39.40
79612;BME280;69094;48.154;11.536;2024-03-02T11:42:05;94391.88;;;19.46;38.85
79612;BME280;69094;48.154;11.536;2024-03-02T11:44:33;94397.84;;;19.41;38.21
79612;BME280;69094;48.154;11.536;2024-03-02T11:47:05;94389.06;;;20.18;37.27
79612;BME280;69094;48.154;11.536;2024-03-02T11:49:50;94386.69;;;18.65;39.94
79612;BME280;69094;48.154;11.536;2024-03-02T11:52:16;94381.94;;;18.65;40.76
79612;BME280;69094;48.154;11.536;2024-03-02T11:54:44;94381.31;;;19.37;38.97
79612;BME280;69094;48.154;11.536;2024-03-02T11:57:15;94380.88;;;17.89;40.98
79612;BME280;69094;48.154;11.536;2024-03-02T11:59:41;94366.25;;;18.06;39.97
79612;BME280;69094;48.154;11.536;2024-03-02T12:02:14;94367.19;;;17.68;41.51
79612;BME280;69094;48.154;11.536;2024-03-02T12:04:40;94366.66;;;18.57;40.51
79612;BME280;69094;48.154;11.536;2024-03-02T12:07:06;94351.75;;;18.55;41.01
79612;BME280;69094;48.154;11.536;2024-03-02T12:09:31;94365.38;;;19.90;37.86
79612;BME280;69094;48.154;11.536;2024-03-02T12:12:09;94363.50;;;19.07;39.49
79612;BME280;69094;48.154;11.536;2024-03-02T12:14:36;94358.44;;;19.40;38.61
79612;BME280;69094;48.154;11.536;2024-03-02T12:17:03;94352.72;;;20.19;37.68
79612;BME280;69094;48.154;11.536;2024-03-02T12:19:29;94347.19;;;18.86;39.77
79612;BME280;69094;48.154;11.536;2024-03-02T12:22:01;94348.13;;;19.48;39.09
79612;BME280;69094;48.154;11.536;2024-03-02T12:24:28;94349.53;;;19.94;38.72
79612;BME280;69094;48.154;11.536;2024-03-02T12:26:54;94346.38;;;19.27;39.70
79612;BME280;69094;48.154;11.536;2024-03-02T12:29:20;94328.75;;;18.72;40.40
79612;BME280;69094;48.154;11.536;2024-03-02T12:31:50;94327.97;;;18.79;40.86
79612;BME280;69094;48.154;11.536;2024-03-02T12:34:17;94319.50;;;18.97;41.01
79612;BME280;69094;48.154;11.536;2024-03-02T12:36:43;94324.03;;;18.72;41.33
79612;BME280;69094;48.154;11.536;2024-03-02T12:39:09;94316.47;;;18.35;41.84
79612;BME280;69094;48.154;11.536;2024-03-02T12:41:38;94316.94;;;19.51;40.58
79612;BME280;69094;48.154;11.536;2024-03-02T12:44:06;94312.78;;;19.70;39.37
79612;BME280;69094;48.154;11.536;2024-03-02T12:46:32;94306.94;;;19.30;40.31
79612;BME280;69094;48.154;11.536;2024-03-02T12:49:09;94299.50;;;18.40;42.03
79612;BME280;69094;48.154;11.536;2024-03-02T12:51:35;94301.00;;;18.00;43.29
79612;BME280;69094;48.154;11.536;2024-03-02T12:54:01;94295.25;;;17.69;43.54
79612;BME280;69094;48.154;11.536;2024-03-02T12:56:27;94293.56;;;17.97;43.88
79612;BME280;69094;48.154;11.536;2024-03-02T12:58:56;94285.63;;;18.55;43.07
79612;BME280;69094;48.154;11.536;2024-03-02T13:01:21;94282.06;;;18.99;42.12
79612;BME280;69094;48.154;11.536;2024-03-02T13:03:50;94282.06;;;18.99;41.33
79612;BME280;69094;48.154;11.536;2024-03-02T13:06:20;94285.69;;;18.47;41.67